Česky Dansk Deutsch English Español Suomi Français Magyar Italiano Nederlands norsk Polski Português svenska Türkçe

 

Het Weer

Hohenems-Dornbirn (Oostenrijk)

14:00, 19 augustus 2016 (GMT)

NWNNE
WE
SWSSE
Home            
Hohenems-Dornbirn Saint Gallen-Altenrhein Friedrichshafen Konstanz Memmingen Resia Pass Zurich-Kloten Laupheim Altenstadt Messstetten Donaueschingen / Villingen Landsberg Lechfeld Innsbruck-Flughafen Oberpfaffenhofen Fuerstenfeldbruck Augsburg Stuttgart-Echterdingen Schwaz Heliport Bolzano Lugano Bale-Mulhouse Paganella

Om een weerknop op uw website of weblog te plaatsen, copieer onderstaande code en plak die in uw pagina. In het eerste vakje staat HTML-code, in het tweede vakje UBB-code.


Add to Google

Details

Wind speed:1 bf, 3 kn, 1.5 m/s, 3.5 miles/h, 5.6 km/h
Wind direction:N, 350°
Temperature:24°C, 75°F
Gefühlte Temperatur:25°C, 77°F
Dew-point:17°C, 63°F
Atmospheric pressure:1012 hPa, 759.1 mmHg, 29.88 inHg, 0.999 atm
Relative humidity:64.9 %
METAR:LOIH 191400Z 35003KT 35KM FEW035CU BKN300CI 24/17 Q1012 RMK BKN

Snelkoppelingen

Actuele weersinformatie van de hele wereld. Voeg locaties toe met het plus (+) symbool. Deze snelkoppelingen kunnen worden toegevoegd aan Google.

Lid van de Technetium groep

website free tracking
StatCounter NetStat W3C Validator

22-05-2022 12:49:03
astro.technetium.be money.technetium.be phote.technetium.be tafeltennistafel.technetium.be www.ligfiets.net